sensor_id;sensor_type;location;lat;lon;timestamp;pressure;altitude;pressure_sealevel;temperature;humidity
56038;BME280;41907;47.848;9.000;2023-04-01T00:00:58;94733.78;;;6.83;100.00
56038;BME280;41907;47.848;9.000;2023-04-01T00:03:24;94733.19;;;6.86;100.00
56038;BME280;41907;47.848;9.000;2023-04-01T00:05:50;94733.19;;;6.86;100.00
56038;BME280;41907;47.848;9.000;2023-04-01T00:08:15;94733.34;;;6.90;100.00
56038;BME280;41907;47.848;9.000;2023-04-01T00:10:41;94728.38;;;6.88;100.00
56038;BME280;41907;47.848;9.000;2023-04-01T00:13:06;94738.91;;;6.80;100.00
56038;BME280;41907;47.848;9.000;2023-04-01T00:15:32;94714.91;;;6.76;100.00
56038;BME280;41907;47.848;9.000;2023-04-01T00:17:57;94725.78;;;6.66;100.00
56038;BME280;41907;47.848;9.000;2023-04-01T00:20:23;94716.59;;;6.63;100.00
56038;BME280;41907;47.848;9.000;2023-04-01T00:22:49;94709.28;;;6.60;100.00
56038;BME280;41907;47.848;9.000;2023-04-01T00:25:14;94717.81;;;6.57;100.00
56038;BME280;41907;47.848;9.000;2023-04-01T00:27:40;94717.13;;;6.43;100.00
56038;BME280;41907;47.848;9.000;2023-04-01T00:30:06;94727.59;;;6.48;100.00
56038;BME280;41907;47.848;9.000;2023-04-01T00:32:32;94719.69;;;6.57;100.00
56038;BME280;41907;47.848;9.000;2023-04-01T00:34:57;94720.16;;;6.59;100.00
56038;BME280;41907;47.848;9.000;2023-04-01T00:37:24;94728.72;;;6.56;100.00
56038;BME280;41907;47.848;9.000;2023-04-01T00:39:50;94728.06;;;6.42;100.00
56038;BME280;41907;47.848;9.000;2023-04-01T00:42:15;94728.75;;;6.33;100.00
56038;BME280;41907;47.848;9.000;2023-04-01T00:44:41;94724.50;;;6.24;100.00
56038;BME280;41907;47.848;9.000;2023-04-01T00:47:06;94721.75;;;6.29;100.00
56038;BME280;41907;47.848;9.000;2023-04-01T00:49:43;94727.97;;;6.33;100.00
56038;BME280;41907;47.848;9.000;2023-04-01T00:52:10;94729.41;;;6.30;100.00
56038;BME280;41907;47.848;9.000;2023-04-01T00:54:36;94721.75;;;6.29;100.00
56038;BME280;41907;47.848;9.000;2023-04-01T00:57:06;94720.00;;;6.24;100.00
56038;BME280;41907;47.848;9.000;2023-04-01T00:59:40;94714.59;;;6.29;100.00
56038;BME280;41907;47.848;9.000;2023-04-01T01:02:08;94703.84;;;6.34;100.00
56038;BME280;41907;47.848;9.000;2023-04-01T01:04:35;94703.56;;;6.36;100.00
56038;BME280;41907;47.848;9.000;2023-04-01T01:09:41;94716.00;;;6.35;100.00
56038;BME280;41907;47.848;9.000;2023-04-01T01:12:13;94715.06;;;6.31;100.00
56038;BME280;41907;47.848;9.000;2023-04-01T01:25:29;94715.44;;;6.16;100.00
56038;BME280;41907;47.848;9.000;2023-04-01T01:28:22;94715.59;;;6.11;100.00
56038;BME280;41907;47.848;9.000;2023-04-01T01:33:18;94707.94;;;6.10;100.00
56038;BME280;41907;47.848;9.000;2023-04-01T01:35:49;94706.69;;;6.07;100.00
56038;BME280;41907;47.848;9.000;2023-04-01T01:38:19;94707.22;;;6.18;100.00
56038;BME280;41907;47.848;9.000;2023-04-01T01:40:47;94707.34;;;6.13;100.00
56038;BME280;41907;47.848;9.000;2023-04-01T01:43:14;94698.44;;;6.09;100.00
56038;BME280;41907;47.848;9.000;2023-04-01T01:45:43;94698.75;;;6.07;100.00
56038;BME280;41907;47.848;9.000;2023-04-01T01:48:09;94688.00;;;6.04;100.00
56038;BME280;41907;47.848;9.000;2023-04-01T01:50:36;94685.94;;;6.01;100.00
56038;BME280;41907;47.848;9.000;2023-04-01T01:53:06;94685.16;;;6.00;100.00
56038;BME280;41907;47.848;9.000;2023-04-01T01:55:33;94681.91;;;6.03;100.00
56038;BME280;41907;47.848;9.000;2023-04-01T01:57:59;94678.50;;;6.03;100.00
56038;BME280;41907;47.848;9.000;2023-04-01T02:00:25;94683.47;;;6.04;100.00
56038;BME280;41907;47.848;9.000;2023-04-01T02:02:51;94683.16;;;6.06;100.00
56038;BME280;41907;47.848;9.000;2023-04-01T02:05:23;94689.69;;;6.00;100.00
56038;BME280;41907;47.848;9.000;2023-04-01T02:07:51;94692.38;;;6.08;100.00
56038;BME280;41907;47.848;9.000;2023-04-01T02:10:19;94693.94;;;6.09;100.00
56038;BME280;41907;47.848;9.000;2023-04-01T02:12:47;94683.34;;;6.09;100.00
56038;BME280;41907;47.848;9.000;2023-04-01T02:15:13;94688.75;;;6.04;100.00
56038;BME280;41907;47.848;9.000;2023-04-01T02:17:42;94700.13;;;6.05;100.00
56038;BME280;41907;47.848;9.000;2023-04-01T02:20:09;94690.06;;;6.15;100.00
56038;BME280;41907;47.848;9.000;2023-04-01T02:22:38;94681.66;;;6.13;100.00
56038;BME280;41907;47.848;9.000;2023-04-01T02:25:10;94689.75;;;6.17;100.00
56038;BME280;41907;47.848;9.000;2023-04-01T02:27:37;94681.78;;;6.08;100.00
56038;BME280;41907;47.848;9.000;2023-04-01T02:30:03;94697.69;;;6.17;100.00
56038;BME280;41907;47.848;9.000;2023-04-01T02:32:28;94696.56;;;6.09;100.00
56038;BME280;41907;47.848;9.000;2023-04-01T02:34:54;94690.97;;;6.11;100.00
56038;BME280;41907;47.848;9.000;2023-04-01T02:37:20;94689.13;;;6.11;100.00
56038;BME280;41907;47.848;9.000;2023-04-01T02:39:46;94682.84;;;6.07;100.00
56038;BME280;41907;47.848;9.000;2023-04-01T02:42:11;94688.63;;;6.09;100.00
56038;BME280;41907;47.848;9.000;2023-04-01T02:44:36;94687.06;;;6.08;100.00
56038;BME280;41907;47.848;9.000;2023-04-01T02:47:01;94690.72;;;6.21;100.00
56038;BME280;41907;47.848;9.000;2023-04-01T02:49:27;94693.34;;;6.12;100.00
56038;BME280;41907;47.848;9.000;2023-04-01T02:51:52;94689.59;;;6.13;100.00
56038;BME280;41907;47.848;9.000;2023-04-01T02:54:18;94684.94;;;6.19;100.00
56038;BME280;41907;47.848;9.000;2023-04-01T02:56:43;94686.81;;;6.18;100.00
56038;BME280;41907;47.848;9.000;2023-04-01T02:59:08;94672.50;;;6.19;100.00
56038;BME280;41907;47.848;9.000;2023-04-01T03:01:34;94687.78;;;6.22;100.00
56038;BME280;41907;47.848;9.000;2023-04-01T03:03:59;94685.25;;;6.17;100.00
56038;BME280;41907;47.848;9.000;2023-04-01T03:06:24;94681.34;;;6.15;100.00
56038;BME280;41907;47.848;9.000;2023-04-01T03:08:49;94681.03;;;6.16;100.00
56038;BME280;41907;47.848;9.000;2023-04-01T03:11:15;94680.91;;;6.21;100.00
56038;BME280;41907;47.848;9.000;2023-04-01T03:13:40;94681.84;;;6.25;100.00
56038;BME280;41907;47.848;9.000;2023-04-01T03:16:05;94682.19;;;6.32;100.00
56038;BME280;41907;47.848;9.000;2023-04-01T03:18:31;94690.88;;;6.24;100.00
56038;BME280;41907;47.848;9.000;2023-04-01T03:20:56;94681.72;;;6.30;100.00
56038;BME280;41907;47.848;9.000;2023-04-01T03:23:21;94682.16;;;6.24;100.00
56038;BME280;41907;47.848;9.000;2023-04-01T03:25:47;94688.72;;;6.26;100.00
56038;BME280;41907;47.848;9.000;2023-04-01T03:28:13;94687.78;;;6.22;100.00
56038;BME280;41907;47.848;9.000;2023-04-01T03:30:38;94685.28;;;6.26;100.00
56038;BME280;41907;47.848;9.000;2023-04-01T03:33:04;94687.03;;;6.30;100.00
56038;BME280;41907;47.848;9.000;2023-04-01T03:35:29;94686.06;;;6.26;100.00
56038;BME280;41907;47.848;9.000;2023-04-01T03:37:54;94687.16;;;6.25;100.00
56038;BME280;41907;47.848;9.000;2023-04-01T03:40:20;94678.69;;;6.15;100.00
56038;BME280;41907;47.848;9.000;2023-04-01T03:42:45;94671.22;;;6.17;100.00
56038;BME280;41907;47.848;9.000;2023-04-01T03:45:11;94687.59;;;6.19;100.00
56038;BME280;41907;47.848;9.000;2023-04-01T03:47:37;94672.81;;;6.26;100.00
56038;BME280;41907;47.848;9.000;2023-04-01T03:50:02;94670.47;;;6.25;100.00
56038;BME280;41907;47.848;9.000;2023-04-01T03:52:27;94674.09;;;6.29;100.00
56038;BME280;41907;47.848;9.000;2023-04-01T03:54:53;94672.34;;;6.24;100.00
56038;BME280;41907;47.848;9.000;2023-04-01T03:57:18;94669.25;;;6.22;100.00
56038;BME280;41907;47.848;9.000;2023-04-01T03:59:43;94671.72;;;6.19;100.00
56038;BME280;41907;47.848;9.000;2023-04-01T04:02:08;94660.53;;;6.22;100.00
56038;BME280;41907;47.848;9.000;2023-04-01T04:04:34;94662.72;;;6.28;100.00
56038;BME280;41907;47.848;9.000;2023-04-01T04:06:59;94657.53;;;6.23;100.00
56038;BME280;41907;47.848;9.000;2023-04-01T04:09:24;94662.69;;;6.20;100.00
56038;BME280;41907;47.848;9.000;2023-04-01T04:11:50;94670.59;;;6.11;100.00
56038;BME280;41907;47.848;9.000;2023-04-01T04:14:15;94678.22;;;6.13;100.00
56038;BME280;41907;47.848;9.000;2023-04-01T04:16:41;94664.06;;;6.17;100.00
56038;BME280;41907;47.848;9.000;2023-04-01T04:19:06;94672.59;;;6.14;100.00
56038;BME280;41907;47.848;9.000;2023-04-01T04:21:31;94666.19;;;6.07;100.00
56038;BME280;41907;47.848;9.000;2023-04-01T04:23:57;94671.06;;;6.13;100.00
56038;BME280;41907;47.848;9.000;2023-04-01T04:26:23;94673.72;;;6.13;100.00
56038;BME280;41907;47.848;9.000;2023-04-01T04:28:48;94670.63;;;6.20;100.00
56038;BME280;41907;47.848;9.000;2023-04-01T04:31:17;94688.69;;;6.18;100.00
56038;BME280;41907;47.848;9.000;2023-04-01T04:33:43;94687.09;;;6.17;100.00
56038;BME280;41907;47.848;9.000;2023-04-01T04:36:08;94684.94;;;6.19;100.00
56038;BME280;41907;47.848;9.000;2023-04-01T04:38:34;94682.28;;;6.19;100.00
56038;BME280;41907;47.848;9.000;2023-04-01T04:40:59;94690.25;;;6.19;100.00
56038;BME280;41907;47.848;9.000;2023-04-01T04:43:24;94690.06;;;6.15;100.00
56038;BME280;41907;47.848;9.000;2023-04-01T04:45:50;94689.72;;;6.08;100.00
56038;BME280;41907;47.848;9.000;2023-04-01T04:48:16;94695.19;;;6.12;100.00
56038;BME280;41907;47.848;9.000;2023-04-01T04:50:44;94690.34;;;6.14;100.00
56038;BME280;41907;47.848;9.000;2023-04-01T04:53:10;94688.97;;;6.16;100.00
56038;BME280;41907;47.848;9.000;2023-04-01T04:55:35;94689.13;;;6.11;100.00
56038;BME280;41907;47.848;9.000;2023-04-01T04:58:01;94681.44;;;6.01;100.00
56038;BME280;41907;47.848;9.000;2023-04-01T05:00:26;94685.94;;;6.01;100.00
56038;BME280;41907;47.848;9.000;2023-04-01T05:02:51;94684.72;;;6.07;100.00
56038;BME280;41907;47.848;9.000;2023-04-01T05:05:16;94680.66;;;6.01;100.00
56038;BME280;41907;47.848;9.000;2023-04-01T05:07:42;94687.50;;;6.02;100.00
56038;BME280;41907;47.848;9.000;2023-04-01T05:10:07;94692.13;;;5.96;100.00
56038;BME280;41907;47.848;9.000;2023-04-01T05:12:32;94691.84;;;5.97;100.00
56038;BME280;41907;47.848;9.000;2023-04-01T05:15:02;94694.19;;;5.99;100.00
56038;BME280;41907;47.848;9.000;2023-04-01T05:17:27;94697.13;;;5.97;100.00
56038;BME280;41907;47.848;9.000;2023-04-01T05:19:52;94691.06;;;5.97;100.00
56038;BME280;41907;47.848;9.000;2023-04-01T05:22:17;94697.44;;;5.96;100.00
56038;BME280;41907;47.848;9.000;2023-04-01T05:24:43;94694.78;;;5.96;100.00
56038;BME280;41907;47.848;9.000;2023-04-01T05:27:08;94690.16;;;6.02;100.00
56038;BME280;41907;47.848;9.000;2023-04-01T05:29:33;94693.09;;;6.00;100.00
56038;BME280;41907;47.848;9.000;2023-04-01T05:32:00;94695.50;;;6.10;100.00
56038;BME280;41907;47.848;9.000;2023-04-01T05:34:25;94690.94;;;6.02;100.00
56038;BME280;41907;47.848;9.000;2023-04-01T05:36:50;94688.09;;;5.98;100.00
56038;BME280;41907;47.848;9.000;2023-04-01T05:39:17;94697.72;;;5.94;100.00
56038;BME280;41907;47.848;9.000;2023-04-01T05:41:42;94689.63;;;5.91;100.00
56038;BME280;41907;47.848;9.000;2023-04-01T05:44:07;94698.06;;;5.93;100.00
56038;BME280;41907;47.848;9.000;2023-04-01T05:46:36;94699.44;;;5.90;100.00
56038;BME280;41907;47.848;9.000;2023-04-01T05:49:01;94686.28;;;5.85;100.00
56038;BME280;41907;47.848;9.000;2023-04-01T05:51:26;94695.00;;;5.86;100.00
56038;BME280;41907;47.848;9.000;2023-04-01T05:53:51;94683.91;;;5.97;100.00
56038;BME280;41907;47.848;9.000;2023-04-01T05:56:17;94681.22;;;5.89;100.00
56038;BME280;41907;47.848;9.000;2023-04-01T05:58:42;94676.19;;;5.87;100.00
56038;BME280;41907;47.848;9.000;2023-04-01T06:01:08;94680.91;;;5.90;100.00
56038;BME280;41907;47.848;9.000;2023-04-01T06:03:34;94689.63;;;5.91;100.00
56038;BME280;41907;47.848;9.000;2023-04-01T06:05:59;94683.84;;;5.89;100.00
56038;BME280;41907;47.848;9.000;2023-04-01T06:08:26;94693.34;;;5.90;100.00
56038;BME280;41907;47.848;9.000;2023-04-01T06:24:10;94697.09;;;6.20;100.00
56038;BME280;41907;47.848;9.000;2023-04-01T06:26:59;94696.63;;;6.18;100.00
56038;BME280;41907;47.848;9.000;2023-04-01T06:34:49;94701.22;;;6.43;100.00
56038;BME280;41907;47.848;9.000;2023-04-01T06:40:10;94706.19;;;6.36;100.00
56038;BME280;41907;47.848;9.000;2023-04-01T06:48:09;94706.13;;;6.50;100.00
56038;BME280;41907;47.848;9.000;2023-04-01T06:58:06;94705.69;;;6.65;100.00
56038;BME280;41907;47.848;9.000;2023-04-01T07:00:36;94695.09;;;6.73;100.00
56038;BME280;41907;47.848;9.000;2023-04-01T07:03:14;94685.13;;;6.70;100.00
56038;BME280;41907;47.848;9.000;2023-04-01T07:05:41;94684.19;;;6.75;100.00
56038;BME280;41907;47.848;9.000;2023-04-01T07:08:08;94675.78;;;6.82;100.00
56038;BME280;41907;47.848;9.000;2023-04-01T07:10:41;94678.00;;;6.88;100.00
56038;BME280;41907;47.848;9.000;2023-04-01T07:13:16;94670.06;;;6.97;100.00
56038;BME280;41907;47.848;9.000;2023-04-01T07:15:46;94675.66;;;6.95;100.00
56038;BME280;41907;47.848;9.000;2023-04-01T07:18:15;94679.72;;;7.01;100.00
56038;BME280;41907;47.848;9.000;2023-04-01T07:20:42;94680.50;;;7.02;100.00
56038;BME280;41907;47.848;9.000;2023-04-01T07:23:15;94683.16;;;7.02;100.00
56038;BME280;41907;47.848;9.000;2023-04-01T07:25:42;94690.97;;;7.16;100.00
56038;BME280;41907;47.848;9.000;2023-04-01T07:28:12;94691.78;;;7.16;100.00
56038;BME280;41907;47.848;9.000;2023-04-01T07:30:50;94686.28;;;7.13;100.00
56038;BME280;41907;47.848;9.000;2023-04-01T07:33:25;94687.56;;;7.24;100.00
56038;BME280;41907;47.848;9.000;2023-04-01T07:36:03;94699.72;;;7.25;100.00
56038;BME280;41907;47.848;9.000;2023-04-01T07:46:17;94691.00;;;7.33;100.00
56038;BME280;41907;47.848;9.000;2023-04-01T07:48:58;94709.38;;;7.29;100.00
56038;BME280;41907;47.848;9.000;2023-04-01T07:54:45;94705.47;;;7.27;100.00
56038;BME280;41907;47.848;9.000;2023-04-01T07:57:22;94715.78;;;7.28;100.00
56038;BME280;41907;47.848;9.000;2023-04-01T08:00:10;94722.66;;;7.21;100.00
56038;BME280;41907;47.848;9.000;2023-04-01T08:08:11;94726.69;;;7.18;100.00
56038;BME280;41907;47.848;9.000;2023-04-01T08:10:52;94721.53;;;7.04;100.00
56038;BME280;41907;47.848;9.000;2023-04-01T08:15:57;94714.66;;;7.03;100.00
56038;BME280;41907;47.848;9.000;2023-04-01T08:18:35;94713.41;;;7.09;100.00
56038;BME280;41907;47.848;9.000;2023-04-01T08:21:10;94715.28;;;7.18;100.00
56038;BME280;41907;47.848;9.000;2023-04-01T08:23:37;94704.66;;;7.00;100.00
56038;BME280;41907;47.848;9.000;2023-04-01T08:26:05;94717.31;;;6.95;100.00
56038;BME280;41907;47.848;9.000;2023-04-01T08:28:33;94716.22;;;6.96;100.00
56038;BME280;41907;47.848;9.000;2023-04-01T08:31:08;94707.31;;;6.92;100.00
56038;BME280;41907;47.848;9.000;2023-04-01T08:33:35;94715.91;;;6.97;100.00
56038;BME280;41907;47.848;9.000;2023-04-01T08:36:19;94709.34;;;6.95;100.00
56038;BME280;41907;47.848;9.000;2023-04-01T08:46:42;94709.66;;;7.02;100.00
56038;BME280;41907;47.848;9.000;2023-04-01T08:52:31;94712.00;;;7.03;100.00
56038;BME280;41907;47.848;9.000;2023-04-01T08:58:25;94708.75;;;7.06;100.00
56038;BME280;41907;47.848;9.000;2023-04-01T09:00:43;94726.03;;;6.95;100.00
56038;BME280;41907;47.848;9.000;2023-04-01T09:03:19;94722.00;;;6.98;100.00
56038;BME280;41907;47.848;9.000;2023-04-01T09:08:31;94719.47;;;6.93;100.00
56038;BME280;41907;47.848;9.000;2023-04-01T09:19:18;94730.69;;;6.98;100.00
56038;BME280;41907;47.848;9.000;2023-04-01T09:21:54;94722.91;;;6.93;100.00
56038;BME280;41907;47.848;9.000;2023-04-01T09:34:40;94736.09;;;7.33;100.00
56038;BME280;41907;47.848;9.000;2023-04-01T09:37:20;94732.16;;;7.30;100.00
56038;BME280;41907;47.848;9.000;2023-04-01T09:40:01;94736.22;;;7.28;100.00
56038;BME280;41907;47.848;9.000;2023-04-01T09:45:23;94734.66;;;7.27;100.00
56038;BME280;41907;47.848;9.000;2023-04-01T09:50:57;94738.56;;;7.38;100.00
56038;BME280;41907;47.848;9.000;2023-04-01T09:53:36;94738.72;;;7.33;100.00
56038;BME280;41907;47.848;9.000;2023-04-01T10:06:33;94741.22;;;7.55;100.00
56038;BME280;41907;47.848;9.000;2023-04-01T10:14:33;94730.00;;;7.67;100.00
56038;BME280;41907;47.848;9.000;2023-04-01T10:19:50;94731.88;;;7.66;100.00
56038;BME280;41907;47.848;9.000;2023-04-01T10:25:02;94742.16;;;7.76;100.00
56038;BME280;41907;47.848;9.000;2023-04-01T10:40:35;94740.47;;;7.63;100.00
56038;BME280;41907;47.848;9.000;2023-04-01T11:38:19;94732.44;;;9.29;100.00
56038;BME280;41907;47.848;9.000;2023-04-01T11:43:41;94725.63;;;9.19;100.00
56038;BME280;41907;47.848;9.000;2023-04-01T11:46:11;94718.25;;;9.46;100.00
56038;BME280;41907;47.848;9.000;2023-04-01T11:58:46;94733.38;;;9.33;100.00
56038;BME280;41907;47.848;9.000;2023-04-01T12:06:21;94750.75;;;9.30;100.00
56038;BME280;41907;47.848;9.000;2023-04-01T12:08:57;94746.38;;;9.05;100.00
56038;BME280;41907;47.848;9.000;2023-04-01T12:19:19;94749.25;;;9.21;100.00
56038;BME280;41907;47.848;9.000;2023-04-01T12:22:02;94748.63;;;9.15;100.00
56038;BME280;41907;47.848;9.000;2023-04-01T12:24:49;94750.16;;;9.25;100.00
56038;BME280;41907;47.848;9.000;2023-04-01T12:27:59;94755.06;;;8.85;100.00
56038;BME280;41907;47.848;9.000;2023-04-01T12:35:10;94761.31;;;9.18;100.00
56038;BME280;41907;47.848;9.000;2023-04-01T12:40:54;94759.94;;;9.42;100.00
56038;BME280;41907;47.848;9.000;2023-04-01T12:43:04;94756.94;;;9.43;100.00
56038;BME280;41907;47.848;9.000;2023-04-01T12:53:14;94754.53;;;9.50;100.00
56038;BME280;41907;47.848;9.000;2023-04-01T12:55:45;94749.34;;;9.54;100.00
56038;BME280;41907;47.848;9.000;2023-04-01T13:14:54;94755.50;;;9.46;100.00
56038;BME280;41907;47.848;9.000;2023-04-01T13:20:14;94750.50;;;9.44;100.00
56038;BME280;41907;47.848;9.000;2023-04-01T13:29:43;94753.69;;;9.08;100.00
56038;BME280;41907;47.848;9.000;2023-04-01T13:34:51;94752.81;;;9.25;100.00
56038;BME280;41907;47.848;9.000;2023-04-01T13:37:32;94756.06;;;9.30;100.00
56038;BME280;41907;47.848;9.000;2023-04-01T13:40:13;94760.06;;;9.16;100.00
56038;BME280;41907;47.848;9.000;2023-04-01T13:42:47;94756.81;;;9.10;100.00
56038;BME280;41907;47.848;9.000;2023-04-01T13:45:19;94761.03;;;9.11;100.00
56038;BME280;41907;47.848;9.000;2023-04-01T14:05:47;94780.59;;;8.77;100.00
56038;BME280;41907;47.848;9.000;2023-04-01T14:16:08;94768.69;;;8.83;100.00
56038;BME280;41907;47.848;9.000;2023-04-01T14:23:59;94765.91;;;9.09;100.00
56038;BME280;41907;47.848;9.000;2023-04-01T14:26:50;94772.97;;;9.05;100.00
56038;BME280;41907;47.848;9.000;2023-04-01T14:31:47;94763.75;;;9.03;100.00
56038;BME280;41907;47.848;9.000;2023-04-01T14:34:18;94762.22;;;8.93;100.00
56038;BME280;41907;47.848;9.000;2023-04-01T14:41:45;94764.88;;;8.93;100.00
56038;BME280;41907;47.848;9.000;2023-04-01T14:44:22;94767.50;;;9.02;100.00
56038;BME280;41907;47.848;9.000;2023-04-01T14:49:34;94757.19;;;9.00;100.00
56038;BME280;41907;47.848;9.000;2023-04-01T14:52:04;94773.25;;;9.12;100.00
56038;BME280;41907;47.848;9.000;2023-04-01T14:54:35;94766.63;;;9.18;100.00
56038;BME280;41907;47.848;9.000;2023-04-01T14:59:51;94767.59;;;9.14;100.00
56038;BME280;41907;47.848;9.000;2023-04-01T15:10:12;94773.03;;;9.47;100.00
56038;BME280;41907;47.848;9.000;2023-04-01T15:15:41;94764.16;;;9.43;100.00
56038;BME280;41907;47.848;9.000;2023-04-01T15:26:03;94784.84;;;9.58;100.00
56038;BME280;41907;47.848;9.000;2023-04-01T15:38:38;94777.72;;;9.70;100.00
56038;BME280;41907;47.848;9.000;2023-04-01T15:41:13;94764.03;;;9.60;100.00
56038;BME280;41907;47.848;9.000;2023-04-01T15:46:26;94764.13;;;9.63;100.00
56038;BME280;41907;47.848;9.000;2023-04-01T15:54:21;94768.69;;;9.42;100.00
56038;BME280;41907;47.848;9.000;2023-04-01T16:07:06;94763.41;;;9.54;100.00
56038;BME280;41907;47.848;9.000;2023-04-01T16:09:37;94759.16;;;9.62;100.00
56038;BME280;41907;47.848;9.000;2023-04-01T16:12:18;94773.50;;;9.69;100.00
56038;BME280;41907;47.848;9.000;2023-04-01T16:14:51;94772.47;;;9.62;100.00
56038;BME280;41907;47.848;9.000;2023-04-01T16:19:48;94775.53;;;9.52;100.00
56038;BME280;41907;47.848;9.000;2023-04-01T16:22:35;94776.63;;;9.51;100.00
56038;BME280;41907;47.848;9.000;2023-04-01T16:25:14;94780.63;;;9.57;100.00
56038;BME280;41907;47.848;9.000;2023-04-01T16:33:02;94797.19;;;9.42;100.00
56038;BME280;41907;47.848;9.000;2023-04-01T16:37:58;94789.50;;;9.40;100.00
56038;BME280;41907;47.848;9.000;2023-04-01T16:42:53;94790.44;;;9.65;100.00
56038;BME280;41907;47.848;9.000;2023-04-01T16:45:37;94789.34;;;9.66;100.00
56038;BME280;41907;47.848;9.000;2023-04-01T16:48:14;94795.03;;;9.56;100.00
56038;BME280;41907;47.848;9.000;2023-04-01T16:51:00;94788.03;;;9.51;100.00
56038;BME280;41907;47.848;9.000;2023-04-01T16:53:40;94791.91;;;9.54;100.00
56038;BME280;41907;47.848;9.000;2023-04-01T17:01:04;94798.03;;;9.54;100.00
56038;BME280;41907;47.848;9.000;2023-04-01T17:03:32;94805.69;;;9.56;100.00
56038;BME280;41907;47.848;9.000;2023-04-01T17:12:05;94815.66;;;9.38;100.00
56038;BME280;41907;47.848;9.000;2023-04-01T17:14:20;94819.31;;;9.33;100.00
56038;BME280;41907;47.848;9.000;2023-04-01T17:19:36;94817.53;;;9.38;100.00
56038;BME280;41907;47.848;9.000;2023-04-01T17:27:17;94824.53;;;9.21;100.00
56038;BME280;41907;47.848;9.000;2023-04-01T17:37:36;94826.63;;;8.99;100.00
56038;BME280;41907;47.848;9.000;2023-04-01T17:45:46;94848.44;;;8.83;100.00
56038;BME280;41907;47.848;9.000;2023-04-01T17:48:18;94843.75;;;8.80;100.00
56038;BME280;41907;47.848;9.000;2023-04-01T17:56:02;94849.09;;;8.72;100.00
56038;BME280;41907;47.848;9.000;2023-04-01T17:58:46;94850.16;;;8.79;100.00
56038;BME280;41907;47.848;9.000;2023-04-01T18:11:45;94858.50;;;8.61;100.00
56038;BME280;41907;47.848;9.000;2023-04-01T18:22:20;94865.72;;;8.34;100.00
56038;BME280;41907;47.848;9.000;2023-04-01T18:27:43;94874.47;;;8.43;100.00
56038;BME280;41907;47.848;9.000;2023-04-01T18:30:21;94871.81;;;8.43;100.00
56038;BME280;41907;47.848;9.000;2023-04-01T18:35:29;94878.53;;;8.41;100.00
56038;BME280;41907;47.848;9.000;2023-04-01T18:41:10;94880.84;;;8.25;100.00
56038;BME280;41907;47.848;9.000;2023-04-01T18:43:18;94877.41;;;8.07;100.00
56038;BME280;41907;47.848;9.000;2023-04-01T18:45:51;94882.56;;;8.12;100.00
56038;BME280;41907;47.848;9.000;2023-04-01T18:51:09;94886.94;;;8.00;100.00
56038;BME280;41907;47.848;9.000;2023-04-01T18:56:06;94899.44;;;7.99;100.00
56038;BME280;41907;47.848;9.000;2023-04-01T18:58:52;94899.44;;;7.99;100.00
56038;BME280;41907;47.848;9.000;2023-04-01T19:09:22;94919.75;;;8.12;100.00
56038;BME280;41907;47.848;9.000;2023-04-01T19:17:06;94914.44;;;8.21;100.00
56038;BME280;41907;47.848;9.000;2023-04-01T19:22:47;94919.91;;;8.16;100.00
56038;BME280;41907;47.848;9.000;2023-04-01T19:27:27;94921.31;;;8.13;100.00
56038;BME280;41907;47.848;9.000;2023-04-01T19:37:40;94938.34;;;8.12;100.00
56038;BME280;41907;47.848;9.000;2023-04-01T19:42:50;94945.97;;;7.97;100.00
56038;BME280;41907;47.848;9.000;2023-04-01T19:45:26;94941.91;;;7.91;100.00
56038;BME280;41907;47.848;9.000;2023-04-01T19:53:55;94938.56;;;7.68;100.00
56038;BME280;41907;47.848;9.000;2023-04-01T19:58:37;94941.16;;;7.51;100.00
56038;BME280;41907;47.848;9.000;2023-04-01T20:01:05;94946.91;;;7.44;100.00
56038;BME280;41907;47.848;9.000;2023-04-01T20:06:22;94947.78;;;7.31;100.00
56038;BME280;41907;47.848;9.000;2023-04-01T20:14:01;94952.47;;;7.25;100.00
56038;BME280;41907;47.848;9.000;2023-04-01T20:19:10;94960.66;;;7.15;100.00
56038;BME280;41907;47.848;9.000;2023-04-01T20:21:41;94953.81;;;7.14;100.00
56038;BME280;41907;47.848;9.000;2023-04-01T20:26:35;94956.91;;;7.07;100.00
56038;BME280;41907;47.848;9.000;2023-04-01T20:31:37;94960.19;;;6.91;100.00
56038;BME280;41907;47.848;9.000;2023-04-01T20:36:51;94961.53;;;6.80;100.00
56038;BME280;41907;47.848;9.000;2023-04-01T20:44:21;94969.75;;;6.69;100.00
56038;BME280;41907;47.848;9.000;2023-04-01T20:51:53;94972.69;;;6.68;100.00
56038;BME280;41907;47.848;9.000;2023-04-01T20:54:35;94980.94;;;6.66;100.00
56038;BME280;41907;47.848;9.000;2023-04-01T20:57:09;94970.94;;;6.63;100.00
56038;BME280;41907;47.848;9.000;2023-04-01T21:02:16;94976.16;;;6.55;100.00
56038;BME280;41907;47.848;9.000;2023-04-01T21:13:10;94987.97;;;6.49;100.00
56038;BME280;41907;47.848;9.000;2023-04-01T21:15:47;94983.47;;;6.49;100.00
56038;BME280;41907;47.848;9.000;2023-04-01T21:20:48;94989.47;;;6.41;100.00
56038;BME280;41907;47.848;9.000;2023-04-01T21:23:37;94992.91;;;6.42;100.00
56038;BME280;41907;47.848;9.000;2023-04-01T21:28:35;94995.94;;;6.35;100.00
56038;BME280;41907;47.848;9.000;2023-04-01T21:41:11;95009.69;;;6.23;100.00
56038;BME280;41907;47.848;9.000;2023-04-01T21:46:26;95016.47;;;6.16;100.00
56038;BME280;41907;47.848;9.000;2023-04-01T21:51:49;95028.53;;;6.08;100.00
56038;BME280;41907;47.848;9.000;2023-04-01T22:02:08;95041.38;;;5.87;100.00
56038;BME280;41907;47.848;9.000;2023-04-01T22:07:19;95042.75;;;5.85;100.00
56038;BME280;41907;47.848;9.000;2023-04-01T22:09:49;95044.91;;;5.83;100.00
56038;BME280;41907;47.848;9.000;2023-04-01T22:12:23;95052.81;;;5.69;100.00
56038;BME280;41907;47.848;9.000;2023-04-01T22:15:01;95042.72;;;5.57;100.00
56038;BME280;41907;47.848;9.000;2023-04-01T22:25:29;95048.88;;;5.67;100.00
56038;BME280;41907;47.848;9.000;2023-04-01T22:28:07;95048.78;;;5.58;100.00
56038;BME280;41907;47.848;9.000;2023-04-01T22:30:36;95048.31;;;5.56;100.00
56038;BME280;41907;47.848;9.000;2023-04-01T22:35:37;95054.38;;;5.56;100.00